Time;durP1;ratioP1;P1;durP2;ratioP2;P2;SDS_P1;SDS_P2;PMS_P1;PMS_P2;Temp;Humidity;BMP_temperature;BMP_pressure;BME280_temperature;BME280_humidity;BME280_pressure;Samples;Min_cycle;Max_cycle;Signal;HPM_P1;HPM_P2
2021/07/06 00:00:49;;;;;;;2.57;0.87;;;;;;;16.32;100.00;99697.36;1970562;73;33339;-72
2021/07/06 00:06:13;;;;;;;0.80;0.80;;;;;;;16.38;100.00;99697.37;1970677;73;33485;-71
2021/07/06 00:11:37;;;;;;;2.33;1.13;;;;;;;16.45;100.00;99678.55;1970803;72;32879;-71
2021/07/06 00:17:02;;;;;;;2.67;1.20;;;;;;;16.49;100.00;99672.46;1970916;72;33319;-72
2021/07/06 00:22:27;;;;;;;3.57;1.73;;;;;;;16.68;100.00;99680.53;1970929;73;33329;-71
2021/07/06 00:27:53;;;;;;;6.37;1.40;;;;;;;16.66;100.00;99692.67;1970738;72;32945;-71
2021/07/06 00:33:19;;;;;;;5.83;1.70;;;;;;;16.60;100.00;99690.48;1970930;72;32860;-71
2021/07/06 00:38:49;;;;;;;6.27;1.93;;;;;;;16.60;100.00;99687.67;1970766;73;33544;-72
2021/07/06 00:44:16;;;;;;;8.20;1.83;;;;;;;16.64;100.00;99690.00;1970447;72;32907;-72
2021/07/06 00:49:40;;;;;;;8.13;2.00;;;;;;;16.55;100.00;99691.51;1970867;72;32897;-71
2021/07/06 00:55:06;;;;;;;7.70;2.00;;;;;;;16.37;100.00;99698.53;1970618;72;30965;-72
2021/07/06 01:00:32;;;;;;;6.97;2.40;;;;;;;16.29;100.00;99688.27;1970908;73;33450;-72
2021/07/06 01:05:57;;;;;;;7.43;2.80;;;;;;;16.23;100.00;99688.26;1971132;72;33354;-72
2021/07/06 01:11:22;;;;;;;8.47;2.40;;;;;;;16.33;100.00;99683.59;1970883;72;32853;-72
2021/07/06 01:16:47;;;;;;;10.17;2.90;;;;;;;16.25;100.00;99672.75;1970939;72;33440;-73
2021/07/06 01:22:12;;;;;;;13.37;2.63;;;;;;;16.16;100.00;99667.03;1970324;73;33104;-72
2021/07/06 01:27:38;;;;;;;9.43;3.07;;;;;;;16.09;100.00;99654.98;1970549;72;32871;-72
2021/07/06 01:33:06;;;;;;;11.47;3.00;;;;;;;15.96;100.00;99654.76;1971168;72;33003;-71
2021/07/06 01:38:40;;;;;;;9.50;3.07;;;;;;;15.91;100.00;99655.02;1970476;72;33053;-71
2021/07/06 01:44:05;;;;;;;9.00;3.00;;;;;;;15.83;100.00;99652.54;1970748;73;31029;-71
2021/07/06 01:49:35;;;;;;;14.53;3.03;;;;;;;15.88;100.00;99650.91;1970610;72;33091;-71
2021/07/06 01:55:04;;;;;;;12.83;3.17;;;;;;;15.84;100.00;99633.18;1970554;73;31041;-71
2021/07/06 02:00:31;;;;;;;12.73;3.63;;;;;;;15.84;100.00;99635.98;1970826;72;32949;-71
2021/07/06 02:05:58;;;;;;;14.43;3.23;;;;;;;15.86;100.00;99628.64;1970656;72;33433;-71
2021/07/06 02:11:23;;;;;;;9.83;2.80;;;;;;;15.90;100.00;99618.38;1970464;73;33007;-72
2021/07/06 02:16:47;;;;;;;15.27;4.17;;;;;;;15.87;100.00;99608.67;1970499;72;33053;-71
2021/07/06 02:22:12;;;;;;;13.33;3.20;;;;;;;15.92;100.00;99605.64;1970677;73;33427;-72
2021/07/06 02:27:36;;;;;;;13.20;2.77;;;;;;;15.82;100.00;99599.71;1970478;73;32854;-71
2021/07/06 02:33:03;;;;;;;10.23;3.13;;;;;;;15.70;100.00;99599.11;1970684;72;32863;-72
2021/07/06 02:38:27;;;;;;;15.80;3.50;;;;;;;15.66;100.00;99581.37;1970421;73;33552;-72
2021/07/06 02:43:51;;;;;;;7.87;2.97;;;;;;;15.73;100.00;99579.41;1970446;73;32957;-71
2021/07/06 02:49:16;;;;;;;15.63;3.50;;;;;;;15.73;100.00;99569.61;1970387;73;33087;-71
2021/07/06 02:54:41;;;;;;;10.93;2.93;;;;;;;15.78;100.00;99567.41;1970507;73;33451;-71
2021/07/06 03:00:16;;;;;;;10.33;3.30;;;;;;;15.78;100.00;99563.78;1970413;73;32924;-71
2021/07/06 03:05:41;;;;;;;14.57;3.17;;;;;;;15.74;100.00;99555.86;1970542;73;33555;-71
2021/07/06 03:11:05;;;;;;;14.87;4.30;;;;;;;15.70;100.00;99543.12;1970706;73;33539;-72
2021/07/06 03:16:31;;;;;;;10.47;3.53;;;;;;;15.68;100.00;99544.65;1970470;72;33000;-72
2021/07/06 03:21:55;;;;;;;11.33;2.77;;;;;;;15.61;100.00;99534.05;1960695;71;32971;-71
2021/07/06 03:27:26;;;;;;;13.57;2.67;;;;;;;15.54;100.00;99528.78;1970768;72;32874;-71
2021/07/06 03:32:52;;;;;;;10.37;2.83;;;;;;;15.53;100.00;99536.39;1970506;72;32956;-72
2021/07/06 03:38:23;;;;;;;11.77;2.80;;;;;;;15.53;100.00;99529.40;1970768;72;34099;-72
2021/07/06 03:44:07;;;;;;;13.07;3.30;;;;;;;15.41;100.00;99534.94;1946318;74;33112;-71
2021/07/06 03:49:31;;;;;;;9.80;3.00;;;;;;;15.41;100.00;99525.96;1970660;73;32882;-71
2021/07/06 03:54:56;;;;;;;6.50;2.53;;;;;;;15.23;100.00;99520.35;1970500;72;32931;-71
2021/07/06 04:00:25;;;;;;;11.80;3.00;;;;;;;15.22;100.00;99519.31;1969481;72;39796;-71
2021/07/06 04:06:07;;;;;;;12.80;3.23;;;;;;;15.17;100.00;99503.58;1938518;73;33379;-72
2021/07/06 04:11:32;;;;;;;11.00;2.73;;;;;;;15.07;100.00;99495.64;1970726;72;32928;-71
2021/07/06 04:17:15;;;;;;;9.37;2.70;;;;;;;15.01;100.00;99479.69;1933070;74;33093;-71
2021/07/06 04:22:40;;;;;;;12.23;3.10;;;;;;;14.90;100.00;99488.86;1935620;74;33089;-71
2021/07/06 04:28:06;;;;;;;9.40;3.07;;;;;;;14.93;100.00;99489.58;1970471;72;32956;-71
2021/07/06 04:33:31;;;;;;;8.33;3.20;;;;;;;14.99;100.00;99480.61;1970655;72;33057;-70
2021/07/06 04:38:56;;;;;;;11.13;3.03;;;;;;;14.83;100.00;99453.67;1970324;73;32985;-70
2021/07/06 04:44:20;;;;;;;12.33;3.13;;;;;;;14.86;100.00;99434.80;1970794;72;33492;-71
2021/07/06 04:49:44;;;;;;;13.77;3.00;;;;;;;14.90;100.00;99417.56;1970618;72;32999;-71
2021/07/06 04:55:10;;;;;;;10.90;3.20;;;;;;;14.80;100.00;99405.47;1970662;73;32924;-71
2021/07/06 05:00:35;;;;;;;13.73;3.20;;;;;;;14.84;100.00;99398.83;1970810;72;33437;-73
2021/07/06 05:06:00;;;;;;;8.70;2.87;;;;;;;14.86;100.00;99391.47;1970702;73;33021;-74
2021/07/06 05:11:24;;;;;;;8.63;2.20;;;;;;;14.85;100.00;99387.86;1970459;72;32865;-72
2021/07/06 05:16:51;;;;;;;4.87;1.83;;;;;;;14.89;100.00;99371.23;1970633;73;32949;-70
2021/07/06 05:22:15;;;;;;;6.80;2.30;;;;;;;14.88;100.00;99369.02;1970653;72;32933;-73
2021/07/06 05:27:39;;;;;;;6.77;1.60;;;;;;;14.83;100.00;99359.45;1970761;72;33027;-71
2021/07/06 05:33:05;;;;;;;6.73;1.60;;;;;;;14.83;100.00;99361.43;1970530;72;33064;-71
2021/07/06 05:38:30;;;;;;;4.43;1.40;;;;;;;14.89;100.00;99358.65;1970388;73;32974;-72
2021/07/06 05:43:54;;;;;;;3.10;1.17;;;;;;;14.94;100.00;99355.02;1971321;72;32968;-71
2021/07/06 05:49:19;;;;;;;3.70;1.33;;;;;;;14.91;100.00;99352.11;1970670;72;33054;-72
2021/07/06 05:54:43;;;;;;;6.00;1.40;;;;;;;15.01;100.00;99351.06;1970573;72;32843;-71
2021/07/06 06:00:11;;;;;;;3.63;1.23;;;;;;;15.07;100.00;99349.40;1970822;72;32882;-72
2021/07/06 06:05:38;;;;;;;4.53;1.60;;;;;;;15.18;100.00;99354.19;1970635;72;32919;-70
2021/07/06 06:11:03;;;;;;;3.77;1.60;;;;;;;15.14;100.00;99352.44;1970485;72;32991;-71
2021/07/06 06:16:27;;;;;;;6.40;1.60;;;;;;;15.24;100.00;99352.76;1970580;72;32866;-71
2021/07/06 06:21:51;;;;;;;6.33;1.80;;;;;;;15.29;100.00;99350.30;1948906;72;33122;-72
2021/07/06 06:27:16;;;;;;;6.60;2.00;;;;;;;15.30;100.00;99347.74;1970489;72;32941;-71
2021/07/06 06:32:40;;;;;;;7.40;2.33;;;;;;;15.44;100.00;99353.78;1970826;72;33423;-73
2021/07/06 06:38:06;;;;;;;12.93;2.83;;;;;;;15.61;100.00;99363.91;1970872;72;33518;-70
2021/07/06 06:43:31;;;;;;;9.83;2.50;;;;;;;15.70;100.00;99372.97;1970727;73;33336;-70
2021/07/06 06:48:56;;;;;;;10.23;2.43;;;;;;;15.65;100.00;99376.83;1970775;73;32874;-71
2021/07/06 06:54:21;;;;;;;8.90;2.30;;;;;;;15.70;100.00;99379.97;1970673;73;33369;-71
2021/07/06 06:59:45;;;;;;;8.93;1.90;;;;;;;15.72;100.00;99387.41;1970704;72;33347;-72
2021/07/06 07:05:12;;;;;;;9.23;2.33;;;;;;;15.86;100.00;99397.64;1970720;72;33453;-72
2021/07/06 07:10:39;;;;;;;8.53;2.60;;;;;;;15.77;100.00;99399.77;1970558;72;32910;-71
2021/07/06 07:16:03;;;;;;;9.33;2.57;;;;;;;15.78;100.00;99400.82;1970816;72;33409;-73
2021/07/06 07:21:30;;;;;;;5.17;2.03;;;;;;;15.96;100.00;99411.73;1971057;72;33389;-72
2021/07/06 07:26:54;;;;;;;10.57;2.03;;;;;;;15.93;100.00;99416.03;1971142;72;33333;-76
2021/07/06 07:32:19;;;;;;;10.30;2.70;;;;;;;16.34;100.00;99417.00;1970778;72;33371;-74
2021/07/06 07:37:45;;;;;;;8.90;2.30;;;;;;;16.62;100.00;99418.98;1970761;72;33026;-73
2021/07/06 07:43:31;;;;;;;6.47;2.37;;;;;;;16.30;100.00;99462.33;1946492;73;33032;-72
2021/07/06 07:48:55;;;;;;;6.97;2.37;;;;;;;16.23;100.00;99474.73;1970847;72;31476;-75
2021/07/06 07:54:20;;;;;;;3.73;1.30;;;;;;;16.28;100.00;99490.48;1970714;73;33140;-73
2021/07/06 07:59:44;;;;;;;1.47;0.87;;;;;;;15.88;100.00;99510.91;1970784;73;32974;-76
2021/07/06 08:05:10;;;;;;;1.37;0.40;;;;;;;15.83;100.00;99532.14;1970753;73;32942;-75
2021/07/06 08:10:34;;;;;;;0.90;0.70;;;;;;;15.93;100.00;99547.66;1970739;72;33443;-76
2021/07/06 08:15:58;;;;;;;0.70;0.53;;;;;;;16.20;100.00;99562.31;1970852;72;33394;-70
2021/07/06 08:21:23;;;;;;;0.40;0.40;;;;;;;16.38;100.00;99588.89;1963617;71;32885;-73
2021/07/06 08:26:48;;;;;;;1.50;0.70;;;;;;;16.48;100.00;99614.19;1970595;72;32874;-74
2021/07/06 08:32:15;;;;;;;1.80;0.73;;;;;;;16.39;100.00;99631.72;1970578;72;33044;-72
2021/07/06 08:37:43;;;;;;;1.83;0.70;;;;;;;16.50;100.00;99647.47;1970696;73;32935;-73
2021/07/06 08:43:08;;;;;;;2.07;1.10;;;;;;;17.15;100.00;99658.85;1970949;72;31581;-74
2021/07/06 08:48:36;;;;;;;2.77;1.37;;;;;;;17.65;100.00;99675.90;1970609;73;31494;-72
2021/07/06 08:54:00;;;;;;;3.20;1.10;;;;;;;17.61;100.00;99689.03;1954819;72;28544;-72
2021/07/06 08:59:25;;;;;;;4.90;1.47;;;;;;;17.51;100.00;99690.92;1970934;72;31008;-73
2021/07/06 09:04:51;;;;;;;5.00;1.60;;;;;;;17.97;100.00;99702.61;1970520;72;32951;-73
2021/07/06 09:10:18;;;;;;;3.37;1.70;;;;;;;18.60;100.00;99712.63;1970529;72;31040;-74
2021/07/06 09:15:46;;;;;;;4.83;1.80;;;;;;;18.62;100.00;99717.87;1970805;72;31417;-72
2021/07/06 09:21:13;;;;;;;5.27;1.43;;;;;;;18.52;100.00;99715.61;1964831;71;31139;-72
2021/07/06 09:26:38;;;;;;;7.77;1.83;;;;;;;19.12;100.00;99721.80;1971165;72;31597;-75
2021/07/06 09:32:05;;;;;;;4.50;1.63;;;;;;;19.28;100.00;99721.95;1970752;72;30964;-74
2021/07/06 09:37:29;;;;;;;5.10;1.60;;;;;;;18.56;100.00;99724.98;1970691;73;30986;-75
2021/07/06 09:43:20;;;;;;;5.90;1.87;;;;;;;19.27;100.00;99727.94;1970623;73;30993;-76
2021/07/06 09:49:01;;;;;;;7.47;2.00;;;;;;;19.43;100.00;99752.05;1970823;72;31166;-73
2021/07/06 09:54:27;;;;;;;5.30;1.87;;;;;;;19.53;100.00;99752.87;1971122;73;31513;-73
2021/07/06 10:00:08;;;;;;;7.07;2.43;;;;;;;19.81;100.00;99763.86;1970704;73;31605;-73
2021/07/06 10:05:39;;;;;;;5.57;2.40;;;;;;;19.52;100.00;99774.35;1970670;72;31045;-75
2021/07/06 10:11:04;;;;;;;5.30;2.10;;;;;;;19.05;100.00;99795.05;1970886;72;30913;-75
2021/07/06 10:16:30;;;;;;;4.87;1.27;;;;;;;18.24;100.00;99812.70;1970979;72;32137;-76
2021/07/06 10:21:56;;;;;;;5.70;1.97;;;;;;;18.08;100.00;99828.73;1948120;72;33426;-73
2021/07/06 10:27:23;;;;;;;5.57;1.70;;;;;;;18.19;100.00;99843.30;1970822;73;30991;-74
2021/07/06 10:33:03;;;;;;;5.03;1.90;;;;;;;18.13;100.00;99861.63;1970910;73;31533;-75
2021/07/06 10:38:48;;;;;;;4.10;1.87;;;;;;;18.12;100.00;99877.42;1970882;73;31498;-73
2021/07/06 10:44:18;;;;;;;4.00;1.60;;;;;;;18.57;100.00;99885.48;1971138;73;31080;-75
2021/07/06 10:49:43;;;;;;;2.77;1.40;;;;;;;18.92;100.00;99883.58;1970973;72;31016;-75
2021/07/06 10:55:34;;;;;;;4.67;1.33;;;;;;;19.11;100.00;99894.09;1970821;73;31038;-76
2021/07/06 11:00:58;;;;;;;1.73;1.20;;;;;;;19.51;100.00;99896.06;1970525;72;31032;-74
2021/07/06 11:06:54;;;;;;;2.37;1.17;;;;;;;19.27;100.00;99893.47;1970862;72;31039;-74
2021/07/06 11:10:04;;;;;;;1.17;1.00;;;;;;;19.30;100.00;99907.39;1946310;73;24128;-75
2021/07/06 11:15:35;;;;;;;2.43;1.23;;;;;;;18.40;100.00;99928.01;1970998;72;30938;-72
2021/07/06 11:21:00;;;;;;;2.23;1.30;;;;;;;17.93;100.00;99955.94;1959054;73;31066;-75
2021/07/06 11:26:32;;;;;;;2.17;1.20;;;;;;;17.79;100.00;99963.37;1971152;72;30936;-77
2021/07/06 11:32:15;;;;;;;3.13;1.33;;;;;;;18.14;100.00;99986.90;1970964;72;31474;-72
2021/07/06 11:37:47;;;;;;;2.60;1.10;;;;;;;18.20;100.00;100001.53;1970525;73;31126;-72
2021/07/06 11:43:14;;;;;;;2.43;1.20;;;;;;;18.57;100.00;100013.45;1970559;73;30899;-72
2021/07/06 11:48:44;;;;;;;1.07;0.70;;;;;;;18.62;100.00;100011.80;1970911;73;31038;-75
2021/07/06 11:54:12;;;;;;;0.80;0.80;;;;;;;18.76;100.00;100027.67;1970823;73;30951;-75
2021/07/06 11:59:38;;;;;;;2.27;1.00;;;;;;;18.49;100.00;100030.69;1970746;73;31445;-73
2021/07/06 12:05:17;;;;;;;1.93;1.27;;;;;;;18.14;100.00;100049.35;1970861;72;31376;-73
2021/07/06 12:10:56;;;;;;;2.13;1.20;;;;;;;17.89;100.00;100060.38;1970716;72;30958;-75
2021/07/06 12:16:23;;;;;;;2.07;1.60;;;;;;;17.77;100.00;100089.31;1944315;74;31141;-77
2021/07/06 12:21:50;;;;;;;2.60;1.70;;;;;;;17.60;100.00;100095.98;1970792;73;31561;-74
2021/07/06 12:27:18;;;;;;;3.27;2.17;;;;;;;17.68;100.00;100113.30;1970408;73;31074;-73
2021/07/06 12:32:50;;;;;;;3.73;2.03;;;;;;;17.99;100.00;100121.73;1970586;73;31054;-74
2021/07/06 12:38:15;;;;;;;2.33;2.17;;;;;;;17.99;100.00;100116.93;1970707;72;30992;-75
2021/07/06 12:43:39;;;;;;;2.63;2.33;;;;;;;17.93;100.00;100130.14;1970978;72;31504;-75
2021/07/06 12:49:04;;;;;;;3.67;2.20;;;;;;;17.95;100.00;100135.67;1970720;72;32914;-76
2021/07/06 12:54:35;;;;;;;2.83;2.50;;;;;;;18.21;100.00;100147.94;1971113;72;31549;-72
2021/07/06 13:00:11;;;;;;;3.73;2.50;;;;;;;18.93;100.00;100142.73;1970723;73;31049;-73
2021/07/06 13:05:39;;;;;;;2.67;2.17;;;;;;;19.26;100.00;100140.20;1970569;73;31100;-72
2021/07/06 13:11:17;;;;;;;6.30;2.17;;;;;;;19.44;100.00;100140.12;1970688;73;31503;-74
2021/07/06 13:16:43;;;;;;;2.60;1.60;;;;;;;19.33;100.00;100135.61;1970586;73;30956;-74
2021/07/06 13:22:19;;;;;;;1.87;1.60;;;;;;;19.44;100.00;100139.55;1943499;72;33133;-75
2021/07/06 13:27:44;;;;;;;3.60;1.60;;;;;;;19.52;100.00;100150.41;1970731;72;30981;-75
2021/07/06 13:33:14;;;;;;;3.03;1.47;;;;;;;19.73;100.00;100147.31;1970404;73;30953;-73
2021/07/06 13:38:39;;;;;;;3.60;1.40;;;;;;;19.68;100.00;100153.25;1970905;72;31461;-73
2021/07/06 13:44:04;;;;;;;3.70;1.70;;;;;;;19.39;100.00;100179.20;1970783;73;32957;-75
2021/07/06 13:49:28;;;;;;;2.30;1.43;;;;;;;19.24;100.00;100219.42;1970625;72;33519;-73
2021/07/06 13:54:52;;;;;;;3.87;1.83;;;;;;;17.66;100.00;100286.16;1970614;73;32953;-73
2021/07/06 14:00:18;;;;;;;2.10;1.77;;;;;;;17.04;100.00;100301.63;1971047;72;31656;-73
2021/07/06 14:05:45;;;;;;;6.17;2.70;;;;;;;16.90;100.00;100316.52;1970887;72;31420;-74
2021/07/06 14:11:10;;;;;;;2.60;1.80;;;;;;;16.77;100.00;100308.61;1970967;72;31605;-73
2021/07/06 14:16:35;;;;;;;3.83;2.47;;;;;;;17.10;100.00;100317.11;1970829;72;30942;-72
2021/07/06 14:21:59;;;;;;;3.80;2.20;;;;;;;17.40;100.00;100329.08;1946972;72;31067;-72
2021/07/06 14:27:24;;;;;;;2.97;2.40;;;;;;;17.88;100.00;100327.09;1970747;72;30986;-73
2021/07/06 14:32:49;;;;;;;4.20;2.80;;;;;;;17.98;100.00;100320.42;1970751;73;33422;-73
2021/07/06 14:38:13;;;;;;;3.77;2.67;;;;;;;18.23;100.00;100328.92;1971011;72;31529;-74
2021/07/06 14:43:38;;;;;;;3.83;2.90;;;;;;;18.39;100.00;100346.16;1970806;73;33417;-71
2021/07/06 14:49:02;;;;;;;5.03;2.40;;;;;;;18.45;100.00;100346.73;1970751;73;31096;-71
2021/07/06 14:54:27;;;;;;;3.73;2.73;;;;;;;18.67;100.00;100354.75;1970742;73;31595;-73
2021/07/06 14:59:52;;;;;;;1.43;1.33;;;;;;;18.87;100.00;100353.01;1970772;72;30925;-73
2021/07/06 15:05:16;;;;;;;2.00;1.20;;;;;;;18.91;100.00;100351.12;1970780;73;31044;-73
2021/07/06 15:10:41;;;;;;;1.43;1.20;;;;;;;18.66;100.00;100346.08;1970754;72;31430;-73
2021/07/06 15:16:06;;;;;;;2.17;1.40;;;;;;;18.91;100.00;100346.91;1970852;72;31044;-71
2021/07/06 15:21:31;;;;;;;4.90;1.60;;;;;;;18.76;100.00;100370.11;1952918;72;31019;-76
2021/07/06 15:26:55;;;;;;;1.87;1.70;;;;;;;18.17;100.00;100405.63;1970909;73;30915;-71
2021/07/06 15:32:20;;;;;;;4.50;2.17;;;;;;;17.78;100.00;100432.28;1970863;72;31061;-72
2021/07/06 15:37:50;;;;;;;4.83;2.70;;;;;;;17.25;100.00;100430.16;1970794;72;30964;-73
2021/07/06 15:43:11;;;;;;;2.80;2.40;;;;;;;17.15;100.00;100415.97;1970548;72;30991;-75
2021/07/06 15:48:36;;;;;;;6.27;2.90;;;;;;;17.62;100.00;100422.84;1970690;73;31028;-71
2021/07/06 15:54:00;;;;;;;3.70;2.57;;;;;;;17.79;100.00;100427.48;1970550;72;33467;-74
2021/07/06 15:59:24;;;;;;;3.07;2.40;;;;;;;18.03;100.00;100437.42;1970853;72;31439;-73
2021/07/06 16:04:56;;;;;;;3.17;2.43;;;;;;;18.38;100.00;100426.06;1970636;72;31553;-73
2021/07/06 16:10:21;;;;;;;4.13;2.27;;;;;;;18.69;100.00;100436.83;1970848;72;31166;-76
2021/07/06 16:15:47;;;;;;;2.90;2.20;;;;;;;18.65;100.00;100444.33;1971085;72;31461;-75
2021/07/06 16:21:17;;;;;;;4.37;2.53;;;;;;;18.39;100.00;100441.78;1955757;72;30958;-73
2021/07/06 16:26:49;;;;;;;3.60;2.13;;;;;;;18.36;100.00;100445.84;1970434;73;31078;-73
2021/07/06 16:32:14;;;;;;;6.23;2.73;;;;;;;18.47;100.00;100448.47;1970498;73;31032;-73
2021/07/06 16:37:39;;;;;;;4.93;2.30;;;;;;;18.50;100.00;100443.55;1970443;73;33090;-73
2021/07/06 16:40:11;;;;;;;4.57;2.40;;;;;;;18.56;100.00;100450.64;1946219;74;24732;-74
2021/07/06 16:45:56;;;;;;;4.13;2.17;;;;;;;18.61;100.00;100446.20;1946541;74;31139;-74
2021/07/06 18:06:29;;;;;;;11.90;5.10;;;;;;;17.74;100.00;100491.15;1970515;72;31465;-74
2021/07/06 18:11:53;;;;;;;11.23;4.97;;;;;;;17.80;100.00;100497.97;1970634;72;30965;-72
2021/07/06 18:17:18;;;;;;;11.37;4.23;;;;;;;18.04;100.00;100508.76;1970864;72;31411;-75
2021/07/06 18:22:43;;;;;;;11.57;4.70;;;;;;;18.17;100.00;100516.67;1935982;73;31533;-77
2021/07/06 18:28:15;;;;;;;12.70;4.33;;;;;;;17.87;100.00;100506.67;1970550;72;31008;-74
2021/07/06 18:33:40;;;;;;;9.57;4.97;;;;;;;17.95;100.00;100515.61;1970711;73;31087;-74
2021/07/06 18:39:06;;;;;;;12.00;4.80;;;;;;;17.68;100.00;100507.95;1970719;72;31074;-74
2021/07/06 18:44:31;;;;;;;17.33;5.63;;;;;;;17.62;100.00;100511.31;1970538;72;30980;-74
2021/07/06 18:49:55;;;;;;;9.17;4.47;;;;;;;17.68;100.00;100516.38;1970693;72;31025;-72
2021/07/06 18:55:20;;;;;;;9.00;4.00;;;;;;;17.73;100.00;100521.80;1970690;72;31468;-74
2021/07/06 19:00:44;;;;;;;8.70;3.57;;;;;;;17.63;100.00;100519.96;1970518;72;33071;-72
2021/07/06 19:06:09;;;;;;;6.47;3.73;;;;;;;17.40;100.00;100519.43;1970803;72;31389;-71
2021/07/06 19:11:33;;;;;;;9.07;3.53;;;;;;;17.24;100.00;100528.98;1970824;72;30975;-71
2021/07/06 19:16:57;;;;;;;7.73;3.23;;;;;;;17.33;100.00;100537.36;1970686;72;30938;-76
2021/07/06 19:22:21;;;;;;;9.80;3.50;;;;;;;17.18;100.00;100537.95;1942982;73;31527;-77
2021/07/06 19:27:52;;;;;;;8.07;3.20;;;;;;;17.21;100.00;100540.07;1970647;73;30995;-72
2021/07/06 19:33:17;;;;;;;8.70;3.57;;;;;;;17.13;100.00;100552.98;1970909;72;33488;-70
2021/07/06 19:38:42;;;;;;;9.67;3.70;;;;;;;17.01;100.00;100557.08;1970715;72;33414;-73
2021/07/06 19:44:26;;;;;;;11.33;4.20;;;;;;;16.85;100.00;100567.21;1946483;74;33688;-72
2021/07/06 19:50:11;;;;;;;11.00;3.67;;;;;;;16.83;100.00;100579.33;1946266;74;31007;-72
2021/07/06 19:55:35;;;;;;;12.37;3.80;;;;;;;16.57;100.00;100599.00;1970443;73;33467;-72
2021/07/06 20:01:19;;;;;;;9.43;3.80;;;;;;;16.60;100.00;100594.13;1934624;73;33099;-74
2021/07/06 20:06:43;;;;;;;8.40;3.37;;;;;;;16.53;100.00;100597.98;1970626;72;30917;-74
2021/07/06 20:12:08;;;;;;;8.53;3.47;;;;;;;16.43;100.00;100604.52;1970561;72;31027;-75
2021/07/06 20:17:52;;;;;;;9.87;3.73;;;;;;;16.44;100.00;100618.77;1945004;74;32840;-71
2021/07/06 20:23:16;;;;;;;11.77;4.27;;;;;;;16.26;100.00;100624.36;1970861;72;31631;-76
2021/07/06 20:28:46;;;;;;;8.63;3.83;;;;;;;16.20;100.00;100624.30;1970466;73;33601;-73
2021/07/06 20:34:11;;;;;;;13.40;4.43;;;;;;;16.16;100.00;100633.11;1970646;72;32880;-75
2021/07/06 20:39:35;;;;;;;9.57;3.70;;;;;;;16.08;100.00;100633.93;1970626;72;32890;-72
2021/07/06 20:45:00;;;;;;;7.00;3.63;;;;;;;15.93;100.00;100648.38;1971070;72;30933;-77
2021/07/06 20:50:31;;;;;;;9.70;3.70;;;;;;;15.86;100.00;100663.45;1970831;72;32931;-70
2021/07/06 20:55:57;;;;;;;10.83;4.07;;;;;;;15.87;100.00;100674.91;1970697;73;32869;-71
2021/07/06 21:01:21;;;;;;;10.97;4.50;;;;;;;15.78;100.00;100676.86;1970602;72;32999;-74
2021/07/06 21:07:06;;;;;;;12.83;4.60;;;;;;;15.71;100.00;100690.48;1946078;74;33009;-71
2021/07/06 21:12:30;;;;;;;11.80;4.50;;;;;;;15.63;100.00;100700.50;1970584;72;33021;-73
2021/07/06 21:17:54;;;;;;;12.87;4.53;;;;;;;15.48;100.00;100705.94;1970608;73;33408;-71
2021/07/06 21:23:18;;;;;;;9.97;4.20;;;;;;;15.57;100.00;100707.41;1970789;72;33076;-74
2021/07/06 21:28:43;;;;;;;9.13;5.27;;;;;;;15.60;100.00;100713.76;1970353;73;33013;-72
2021/07/06 21:34:08;;;;;;;12.17;4.67;;;;;;;15.50;100.00;100716.83;1970586;72;33003;-72
2021/07/06 21:39:32;;;;;;;9.80;4.73;;;;;;;15.50;100.00;100722.42;1970422;72;32931;-70
2021/07/06 21:44:57;;;;;;;12.57;5.13;;;;;;;15.40;100.00;100718.48;1970578;72;33400;-71
2021/07/06 21:50:22;;;;;;;11.90;4.97;;;;;;;15.27;100.00;100719.39;1970784;72;32976;-74
2021/07/06 21:55:46;;;;;;;11.90;4.83;;;;;;;15.14;100.00;100711.91;1970694;72;33520;-74
2021/07/06 22:01:10;;;;;;;12.17;5.10;;;;;;;14.97;100.00;100710.61;1970397;72;32943;-73
2021/07/06 22:06:34;;;;;;;13.80;5.30;;;;;;;15.08;100.00;100717.36;1970346;73;33024;-71
2021/07/06 22:12:00;;;;;;;14.47;5.83;;;;;;;14.98;100.00;100724.03;1970919;73;33517;-75
2021/07/06 22:17:24;;;;;;;12.90;5.13;;;;;;;14.99;100.00;100727.92;1970561;73;33019;-73
2021/07/06 22:22:49;;;;;;;11.73;5.43;;;;;;;14.95;100.00;100733.89;1970548;73;33407;-73
2021/07/06 22:28:14;;;;;;;12.47;5.40;;;;;;;14.90;100.00;100736.81;1970769;72;33609;-73
2021/07/06 22:33:38;;;;;;;12.37;5.60;;;;;;;14.87;100.00;100737.45;1970411;73;33063;-73
2021/07/06 22:39:03;;;;;;;11.30;5.40;;;;;;;14.88;100.00;100734.92;1970410;73;33001;-73
2021/07/06 22:44:27;;;;;;;12.40;4.90;;;;;;;14.94;100.00;100736.43;1970607;72;33066;-73
2021/07/06 22:49:51;;;;;;;12.00;5.33;;;;;;;14.94;100.00;100734.20;1970699;73;33060;-71
2021/07/06 22:55:22;;;;;;;11.50;5.60;;;;;;;14.79;100.00;100728.42;1970558;72;32992;-73
2021/07/06 23:00:47;;;;;;;15.60;6.47;;;;;;;14.81;100.00;100733.68;1970568;73;33134;-72
2021/07/06 23:06:11;;;;;;;11.07;5.27;;;;;;;14.76;100.00;100729.03;1970516;72;32867;-73
2021/07/06 23:11:35;;;;;;;14.17;5.77;;;;;;;14.86;100.00;100740.55;1970823;72;33036;-73
2021/07/06 23:17:00;;;;;;;11.20;5.67;;;;;;;14.87;100.00;100747.81;1970546;72;32942;-73
2021/07/06 23:22:24;;;;;;;10.13;5.90;;;;;;;14.92;100.00;100747.12;1942113;73;33058;-72
2021/07/06 23:27:48;;;;;;;12.77;5.70;;;;;;;14.95;100.00;100745.65;1970414;73;33041;-71
2021/07/06 23:33:15;;;;;;;14.23;5.40;;;;;;;14.97;100.00;100744.78;1970688;73;33357;-73
2021/07/06 23:38:40;;;;;;;13.13;5.50;;;;;;;15.04;100.00;100747.95;1970612;73;33115;-71
2021/07/06 23:44:06;;;;;;;12.07;5.37;;;;;;;15.12;100.00;100753.34;1970417;73;33021;-71
2021/07/06 23:49:30;;;;;;;12.47;5.57;;;;;;;15.09;100.00;100747.83;1970587;72;32856;-71
2021/07/06 23:54:54;;;;;;;9.87;5.47;;;;;;;15.08;100.00;100753.73;1970724;72;33470;-71
